To NAV CANADA Home Page Login to a new session Search on AWWS site Feedback and Comments Disclaimer Vers la page française équivalente Tips FAQ What's new on the site To the Forecasts and Observations / NOTAM section To "File a Flight Plan" website Publications and other links Update of the User's profile FIC Telephone Numbers My Weather Data Folder Route Weather Data Regional Weather Data Local Weather Data To the Forecasts and Observations / NOTAM section
Request Generated 06/30/2015 at 08:17:40 UTC . Weather information available at that time is displayed.

METAR/TAF

BAKER LAKE/NU    

METAR CYBK 300800Z 31014KT 20SM SKC 07/02 A2993 RMK SLP138=
METAR CYBK 300700Z 32013KT 20SM SKC 07/01 A2993 RMK SLP138=
METAR CYBK 300600Z 32013KT 20SM SKC 08/02 A2994 RMK SLP139=

TAF CYBK 300538Z 3006/3018 34010KT P6SM FEW030
RMK NXT FCST BY 301200Z=
Your time UTC time
Weather data provided by Environment Canada and NAV CANADA